Orchard, TX (77464)

1:29 AM CDT on September 22, 2014 (GMT -0500)
Foster Crossing | Change Station
CLOSE
Current Station
Personal Weather Station
Location: Richmond, TX
Elevation: 108 ft
Nearby Weather Stations

Elev 108 ft 29.63 °N, 95.83 °W | Updated 13 seconds ago

Clear
Clear
71.8 °F
Feels Like 73 °F
N
0.0
Wind Variable Wind from North
Gusts 0.0 mph

Today
High -- | Low -- °F
--% Chance of Precip.
Yesterday
High -- | Low -- °F
Precip. -- in
7:12 AM 7:20 PM
Waning Crescent, 4% visible
Pressure 30.05 in
Visibility 10.0 miles
Clouds Few 4600 ft
Heat Index 73 °F
Dew Point 64 °F
Humidity 76%
Rainfall 0.00 in
Snow Depth Not available.
UV 0 out of 12
Pollen 9.70 out of 12
Ozone Good
PM2.5 Moderate
Flu Activity Not available.
METAR KTME 220615Z AUTO 28003KT 10SM FEW046 23/23 A3005 RMK AO2

More Conditions Fewer Conditions

Pressure 30.05 in
Visibility 10.0 miles
Clouds Few 4600 ft
Heat Index 73 °F
Dew Point 64 °F
Humidity 76%
Rainfall 0.00 in
Snow Depth Not available.
UV 0 out of 12
Pollen 9.70 out of 12
Ozone Good
PM2.5 Moderate
Flu Activity Not available.
METAR KTME 220615Z AUTO 28003KT 10SM FEW046 23/23 A3005 RMK AO2

More Conditions Fewer Conditions

10-Day Weather Forecast

Almanac

Astronomy

Sep. 22, 2014 Rise Set
Actual Time 7:12 AM CDT 7:20 PM CDT
Civil Twilight 6:48 AM CDT 7:44 PM CDT
Nautical Twilight 6:20 AM CDT 8:11 PM CDT
Astronomical Twilight 5:52 AM CDT 8:39 PM CDT
Moon 5:46 AM CDT 6:25 PM CDT
Length of Visible Light 12h 55m
Length of Day
12h 08m
Tomorrow will be 1m 46s shorter.
Waning Crescent, 4% of the Moon is Illuminated
Today
Waning Crescent
Sep 24
New
Oct 1
First Quarter
Oct 8
Full
Oct 15
Last Quarter

Today's Extremes

State Highs State Lows

Community

WunderPhotos

Upload Photos

1,755,392 photos uploaded!

Nearby

Air Quality

  Air Quality AQ Index Pollutant
Yesterday Unhealthy
OZONE
Yesterday Good
PM2.5
Current Moderate
PM2.5
Current Good
OZONE
Sunday Moderate
OZONE
Sunday Good
PM10
Monday Unhealthy for Sensitive Groups
OZONE
Monday Good
PM10
Tuesday Moderate
OZONE
Tuesday Good
PM10

Snow Depth

Station Depth Elevation
No new snow has been reported.

Earthquake Activity

City Distance Mag. Time & Date
No recent earthquake activity has been reported nearby.
Minimum magnitude displayed is 2.5.

Coastal Water Temperatures

Place Temperature
No Stations Reporting

Nearby Weather Stations